sensor_id;sensor_type;location;lat;lon;timestamp;P1;durP1;ratioP1;P2;durP2;ratioP2
13487;SDS011;6816;48.506;9.050;2022-07-10T00:01:18;3.28;;;2.70;;
13487;SDS011;6816;48.506;9.050;2022-07-10T00:04:18;2.40;;;2.20;;
13487;SDS011;6816;48.506;9.050;2022-07-10T00:07:19;2.55;;;2.35;;
13487;SDS011;6816;48.506;9.050;2022-07-10T00:10:21;3.25;;;2.50;;
13487;SDS011;6816;48.506;9.050;2022-07-10T00:13:22;2.65;;;2.45;;
13487;SDS011;6816;48.506;9.050;2022-07-10T00:16:23;2.65;;;2.45;;
13487;SDS011;6816;48.506;9.050;2022-07-10T00:19:24;3.05;;;2.75;;
13487;SDS011;6816;48.506;9.050;2022-07-10T00:22:25;2.75;;;2.50;;
13487;SDS011;6816;48.506;9.050;2022-07-10T00:25:26;3.10;;;2.75;;
13487;SDS011;6816;48.506;9.050;2022-07-10T00:28:26;2.65;;;2.17;;
13487;SDS011;6816;48.506;9.050;2022-07-10T00:31:27;2.55;;;2.28;;
13487;SDS011;6816;48.506;9.050;2022-07-10T00:34:28;2.95;;;2.75;;
13487;SDS011;6816;48.506;9.050;2022-07-10T00:37:28;3.42;;;2.65;;
13487;SDS011;6816;48.506;9.050;2022-07-10T00:40:29;2.67;;;2.13;;
13487;SDS011;6816;48.506;9.050;2022-07-10T00:43:30;2.50;;;2.30;;
13487;SDS011;6816;48.506;9.050;2022-07-10T00:46:50;2.47;;;2.28;;
13487;SDS011;6816;48.506;9.050;2022-07-10T00:49:51;3.95;;;2.30;;
13487;SDS011;6816;48.506;9.050;2022-07-10T00:52:51;2.58;;;2.38;;
13487;SDS011;6816;48.506;9.050;2022-07-10T00:55:52;2.83;;;2.58;;
13487;SDS011;6816;48.506;9.050;2022-07-10T00:58:53;2.72;;;2.53;;
13487;SDS011;6816;48.506;9.050;2022-07-10T01:01:54;2.67;;;2.45;;
13487;SDS011;6816;48.506;9.050;2022-07-10T01:04:56;2.10;;;2.00;;
13487;SDS011;6816;48.506;9.050;2022-07-10T01:07:57;2.35;;;2.15;;
13487;SDS011;6816;48.506;9.050;2022-07-10T01:10:58;2.30;;;2.10;;
13487;SDS011;6816;48.506;9.050;2022-07-10T01:14:02;2.40;;;2.10;;
13487;SDS011;6816;48.506;9.050;2022-07-10T01:17:04;2.60;;;2.05;;
13487;SDS011;6816;48.506;9.050;2022-07-10T01:20:06;3.28;;;2.30;;
13487;SDS011;6816;48.506;9.050;2022-07-10T01:23:08;2.85;;;2.08;;
13487;SDS011;6816;48.506;9.050;2022-07-10T01:26:08;2.95;;;2.25;;
13487;SDS011;6816;48.506;9.050;2022-07-10T01:29:09;2.30;;;2.10;;
13487;SDS011;6816;48.506;9.050;2022-07-10T01:32:11;2.80;;;2.60;;
13487;SDS011;6816;48.506;9.050;2022-07-10T01:35:12;2.50;;;2.30;;
13487;SDS011;6816;48.506;9.050;2022-07-10T01:38:12;2.75;;;2.50;;
13487;SDS011;6816;48.506;9.050;2022-07-10T01:41:13;2.35;;;2.15;;
13487;SDS011;6816;48.506;9.050;2022-07-10T01:44:14;2.42;;;2.30;;
13487;SDS011;6816;48.506;9.050;2022-07-10T01:47:14;2.47;;;2.22;;
13487;SDS011;6816;48.506;9.050;2022-07-10T01:50:15;2.80;;;2.60;;
13487;SDS011;6816;48.506;9.050;2022-07-10T01:53:16;2.50;;;2.30;;
13487;SDS011;6816;48.506;9.050;2022-07-10T01:56:16;2.65;;;2.40;;
13487;SDS011;6816;48.506;9.050;2022-07-10T01:59:17;2.67;;;2.47;;
13487;SDS011;6816;48.506;9.050;2022-07-10T02:02:18;3.22;;;2.17;;
13487;SDS011;6816;48.506;9.050;2022-07-10T02:05:19;2.22;;;2.08;;
13487;SDS011;6816;48.506;9.050;2022-07-10T02:08:19;2.65;;;2.45;;
13487;SDS011;6816;48.506;9.050;2022-07-10T02:11:20;2.97;;;2.38;;
13487;SDS011;6816;48.506;9.050;2022-07-10T02:14:20;2.60;;;2.40;;
13487;SDS011;6816;48.506;9.050;2022-07-10T02:17:21;2.83;;;2.60;;
13487;SDS011;6816;48.506;9.050;2022-07-10T02:20:23;2.10;;;2.00;;
13487;SDS011;6816;48.506;9.050;2022-07-10T02:23:24;2.42;;;2.22;;
13487;SDS011;6816;48.506;9.050;2022-07-10T02:26:24;3.25;;;2.53;;
13487;SDS011;6816;48.506;9.050;2022-07-10T02:29:25;2.60;;;2.40;;
13487;SDS011;6816;48.506;9.050;2022-07-10T02:32:25;2.38;;;2.17;;
13487;SDS011;6816;48.506;9.050;2022-07-10T02:35:26;3.55;;;2.33;;
13487;SDS011;6816;48.506;9.050;2022-07-10T02:38:27;2.50;;;2.30;;
13487;SDS011;6816;48.506;9.050;2022-07-10T02:41:28;2.78;;;2.35;;
13487;SDS011;6816;48.506;9.050;2022-07-10T02:44:28;2.67;;;2.47;;
13487;SDS011;6816;48.506;9.050;2022-07-10T02:47:29;2.53;;;2.33;;
13487;SDS011;6816;48.506;9.050;2022-07-10T02:50:30;2.38;;;2.17;;
13487;SDS011;6816;48.506;9.050;2022-07-10T02:53:31;2.80;;;2.60;;
13487;SDS011;6816;48.506;9.050;2022-07-10T02:56:32;3.72;;;3.00;;
13487;SDS011;6816;48.506;9.050;2022-07-10T02:59:32;5.25;;;3.00;;
13487;SDS011;6816;48.506;9.050;2022-07-10T03:02:33;3.28;;;2.97;;
13487;SDS011;6816;48.506;9.050;2022-07-10T03:05:34;3.83;;;3.17;;
13487;SDS011;6816;48.506;9.050;2022-07-10T03:08:34;3.13;;;2.92;;
13487;SDS011;6816;48.506;9.050;2022-07-10T03:11:35;3.40;;;3.10;;
13487;SDS011;6816;48.506;9.050;2022-07-10T03:14:36;4.30;;;3.90;;
13487;SDS011;6816;48.506;9.050;2022-07-10T03:17:36;4.07;;;3.70;;
13487;SDS011;6816;48.506;9.050;2022-07-10T03:20:37;4.60;;;4.20;;
13487;SDS011;6816;48.506;9.050;2022-07-10T03:23:37;4.30;;;3.90;;
13487;SDS011;6816;48.506;9.050;2022-07-10T03:26:41;4.30;;;4.00;;
13487;SDS011;6816;48.506;9.050;2022-07-10T03:29:41;4.72;;;4.32;;
13487;SDS011;6816;48.506;9.050;2022-07-10T03:32:42;5.05;;;4.65;;
13487;SDS011;6816;48.506;9.050;2022-07-10T03:35:43;4.93;;;4.53;;
13487;SDS011;6816;48.506;9.050;2022-07-10T03:38:43;4.65;;;4.32;;
13487;SDS011;6816;48.506;9.050;2022-07-10T03:41:45;4.40;;;4.05;;
13487;SDS011;6816;48.506;9.050;2022-07-10T03:44:47;4.45;;;4.05;;
13487;SDS011;6816;48.506;9.050;2022-07-10T03:47:47;4.95;;;4.47;;
13487;SDS011;6816;48.506;9.050;2022-07-10T03:50:51;4.00;;;3.65;;
13487;SDS011;6816;48.506;9.050;2022-07-10T03:53:52;4.57;;;4.18;;
13487;SDS011;6816;48.506;9.050;2022-07-10T03:56:53;5.75;;;4.32;;
13487;SDS011;6816;48.506;9.050;2022-07-10T04:00:12;5.78;;;5.05;;
13487;SDS011;6816;48.506;9.050;2022-07-10T04:03:13;5.50;;;5.00;;
13487;SDS011;6816;48.506;9.050;2022-07-10T04:06:14;6.05;;;5.20;;
13487;SDS011;6816;48.506;9.050;2022-07-10T04:09:14;6.05;;;5.07;;
13487;SDS011;6816;48.506;9.050;2022-07-10T04:12:15;4.95;;;4.55;;
13487;SDS011;6816;48.506;9.050;2022-07-10T04:15:16;5.63;;;5.13;;
13487;SDS011;6816;48.506;9.050;2022-07-10T04:18:16;4.60;;;4.22;;
13487;SDS011;6816;48.506;9.050;2022-07-10T04:21:17;4.95;;;4.55;;
13487;SDS011;6816;48.506;9.050;2022-07-10T04:24:17;5.63;;;4.95;;
13487;SDS011;6816;48.506;9.050;2022-07-10T04:27:18;5.35;;;4.90;;
13487;SDS011;6816;48.506;9.050;2022-07-10T04:30:19;4.72;;;4.25;;
13487;SDS011;6816;48.506;9.050;2022-07-10T04:33:19;5.35;;;4.85;;
13487;SDS011;6816;48.506;9.050;2022-07-10T04:36:20;4.85;;;4.45;;
13487;SDS011;6816;48.506;9.050;2022-07-10T04:39:21;4.28;;;3.97;;
13487;SDS011;6816;48.506;9.050;2022-07-10T04:42:21;4.38;;;3.97;;
13487;SDS011;6816;48.506;9.050;2022-07-10T04:45:22;4.90;;;4.40;;
13487;SDS011;6816;48.506;9.050;2022-07-10T04:48:23;6.72;;;4.80;;
13487;SDS011;6816;48.506;9.050;2022-07-10T04:51:23;4.22;;;3.92;;
13487;SDS011;6816;48.506;9.050;2022-07-10T04:54:24;4.13;;;3.83;;
13487;SDS011;6816;48.506;9.050;2022-07-10T04:57:25;3.90;;;3.60;;
13487;SDS011;6816;48.506;9.050;2022-07-10T05:00:26;4.60;;;4.18;;
13487;SDS011;6816;48.506;9.050;2022-07-10T05:03:27;4.15;;;3.80;;
13487;SDS011;6816;48.506;9.050;2022-07-10T05:06:28;4.65;;;3.65;;
13487;SDS011;6816;48.506;9.050;2022-07-10T05:09:29;3.58;;;3.28;;
13487;SDS011;6816;48.506;9.050;2022-07-10T05:12:29;4.10;;;3.47;;
13487;SDS011;6816;48.506;9.050;2022-07-10T05:15:30;3.50;;;3.20;;
13487;SDS011;6816;48.506;9.050;2022-07-10T05:18:31;3.80;;;3.47;;
13487;SDS011;6816;48.506;9.050;2022-07-10T05:21:32;3.88;;;3.40;;
13487;SDS011;6816;48.506;9.050;2022-07-10T05:24:32;3.63;;;3.33;;
13487;SDS011;6816;48.506;9.050;2022-07-10T05:27:33;2.90;;;2.67;;
13487;SDS011;6816;48.506;9.050;2022-07-10T05:30:34;3.40;;;2.70;;
13487;SDS011;6816;48.506;9.050;2022-07-10T05:33:34;2.80;;;2.60;;
13487;SDS011;6816;48.506;9.050;2022-07-10T05:36:38;3.55;;;3.25;;
13487;SDS011;6816;48.506;9.050;2022-07-10T05:39:38;4.63;;;2.80;;
13487;SDS011;6816;48.506;9.050;2022-07-10T05:42:39;2.90;;;2.60;;
13487;SDS011;6816;48.506;9.050;2022-07-10T05:45:40;4.50;;;2.70;;
13487;SDS011;6816;48.506;9.050;2022-07-10T05:48:41;5.47;;;2.75;;
13487;SDS011;6816;48.506;9.050;2022-07-10T05:51:41;3.05;;;2.50;;
13487;SDS011;6816;48.506;9.050;2022-07-10T05:54:42;3.72;;;2.33;;
13487;SDS011;6816;48.506;9.050;2022-07-10T05:57:43;2.55;;;2.20;;
13487;SDS011;6816;48.506;9.050;2022-07-10T06:00:43;3.60;;;2.25;;
13487;SDS011;6816;48.506;9.050;2022-07-10T06:03:45;2.80;;;2.20;;
13487;SDS011;6816;48.506;9.050;2022-07-10T06:06:46;2.35;;;2.20;;
13487;SDS011;6816;48.506;9.050;2022-07-10T06:09:47;2.15;;;1.95;;
13487;SDS011;6816;48.506;9.050;2022-07-10T06:12:47;4.05;;;1.95;;
13487;SDS011;6816;48.506;9.050;2022-07-10T06:15:49;2.28;;;1.98;;
13487;SDS011;6816;48.506;9.050;2022-07-10T06:18:50;3.95;;;2.33;;
13487;SDS011;6816;48.506;9.050;2022-07-10T06:21:51;1.67;;;1.58;;
13487;SDS011;6816;48.506;9.050;2022-07-10T06:25:13;3.22;;;1.83;;
13487;SDS011;6816;48.506;9.050;2022-07-10T06:28:19;2.97;;;1.83;;
13487;SDS011;6816;48.506;9.050;2022-07-10T06:31:51;2.78;;;2.35;;
13487;SDS011;6816;48.506;9.050;2022-07-10T06:35:25;3.58;;;2.15;;
13487;SDS011;6816;48.506;9.050;2022-07-10T06:38:26;2.47;;;2.10;;
13487;SDS011;6816;48.506;9.050;2022-07-10T06:41:27;2.00;;;1.80;;
13487;SDS011;6816;48.506;9.050;2022-07-10T06:44:27;4.07;;;2.13;;
13487;SDS011;6816;48.506;9.050;2022-07-10T06:47:28;3.15;;;2.00;;
13487;SDS011;6816;48.506;9.050;2022-07-10T06:50:47;3.67;;;1.77;;
13487;SDS011;6816;48.506;9.050;2022-07-10T06:53:48;2.30;;;1.70;;
13487;SDS011;6816;48.506;9.050;2022-07-10T06:56:48;2.28;;;2.00;;
13487;SDS011;6816;48.506;9.050;2022-07-10T06:59:49;1.98;;;1.70;;
13487;SDS011;6816;48.506;9.050;2022-07-10T07:02:51;2.55;;;1.52;;
13487;SDS011;6816;48.506;9.050;2022-07-10T07:05:52;3.38;;;1.40;;
13487;SDS011;6816;48.506;9.050;2022-07-10T07:08:52;2.40;;;1.50;;
13487;SDS011;6816;48.506;9.050;2022-07-10T07:11:53;2.05;;;1.83;;
13487;SDS011;6816;48.506;9.050;2022-07-10T07:14:54;2.63;;;1.35;;
13487;SDS011;6816;48.506;9.050;2022-07-10T07:17:54;1.50;;;1.40;;
13487;SDS011;6816;48.506;9.050;2022-07-10T07:21:07;4.60;;;1.23;;
13487;SDS011;6816;48.506;9.050;2022-07-10T07:24:27;1.42;;;1.20;;
13487;SDS011;6816;48.506;9.050;2022-07-10T07:27:27;1.38;;;1.25;;
13487;SDS011;6816;48.506;9.050;2022-07-10T07:30:28;1.17;;;1.08;;
13487;SDS011;6816;48.506;9.050;2022-07-10T07:33:29;1.42;;;1.13;;
13487;SDS011;6816;48.506;9.050;2022-07-10T07:36:30;2.22;;;1.20;;
13487;SDS011;6816;48.506;9.050;2022-07-10T07:39:31;1.10;;;1.00;;
13487;SDS011;6816;48.506;9.050;2022-07-10T07:42:33;1.30;;;1.13;;
13487;SDS011;6816;48.506;9.050;2022-07-10T07:45:34;3.33;;;1.83;;
13487;SDS011;6816;48.506;9.050;2022-07-10T07:48:35;2.65;;;1.30;;
13487;SDS011;6816;48.506;9.050;2022-07-10T07:51:36;2.35;;;1.35;;
13487;SDS011;6816;48.506;9.050;2022-07-10T07:54:37;2.60;;;1.55;;
13487;SDS011;6816;48.506;9.050;2022-07-10T07:57:37;1.40;;;1.30;;
13487;SDS011;6816;48.506;9.050;2022-07-10T08:00:38;2.25;;;1.90;;
13487;SDS011;6816;48.506;9.050;2022-07-10T08:03:39;3.38;;;1.25;;
13487;SDS011;6816;48.506;9.050;2022-07-10T08:06:39;2.53;;;1.40;;
13487;SDS011;6816;48.506;9.050;2022-07-10T08:09:40;1.52;;;1.23;;
13487;SDS011;6816;48.506;9.050;2022-07-10T08:12:41;1.50;;;1.38;;
13487;SDS011;6816;48.506;9.050;2022-07-10T08:15:43;1.27;;;1.10;;
13487;SDS011;6816;48.506;9.050;2022-07-10T08:18:44;3.08;;;1.25;;
13487;SDS011;6816;48.506;9.050;2022-07-10T08:21:46;2.05;;;1.27;;
13487;SDS011;6816;48.506;9.050;2022-07-10T08:24:46;2.40;;;1.30;;
13487;SDS011;6816;48.506;9.050;2022-07-10T08:27:47;2.38;;;1.33;;
13487;SDS011;6816;48.506;9.050;2022-07-10T08:30:48;2.85;;;1.30;;
13487;SDS011;6816;48.506;9.050;2022-07-10T08:33:48;2.38;;;1.88;;
13487;SDS011;6816;48.506;9.050;2022-07-10T08:36:51;2.15;;;1.52;;
13487;SDS011;6816;48.506;9.050;2022-07-10T08:39:51;1.98;;;1.40;;
13487;SDS011;6816;48.506;9.050;2022-07-10T08:42:52;2.15;;;1.10;;
13487;SDS011;6816;48.506;9.050;2022-07-10T08:45:53;3.83;;;1.45;;
13487;SDS011;6816;48.506;9.050;2022-07-10T08:48:54;2.42;;;1.38;;
13487;SDS011;6816;48.506;9.050;2022-07-10T08:52:03;2.05;;;1.20;;
13487;SDS011;6816;48.506;9.050;2022-07-10T08:55:05;2.45;;;1.38;;
13487;SDS011;6816;48.506;9.050;2022-07-10T08:58:07;4.28;;;1.30;;
13487;SDS011;6816;48.506;9.050;2022-07-10T09:01:09;1.92;;;1.40;;
13487;SDS011;6816;48.506;9.050;2022-07-10T09:04:17;1.30;;;1.17;;
13487;SDS011;6816;48.506;9.050;2022-07-10T09:07:18;2.10;;;1.50;;
13487;SDS011;6816;48.506;9.050;2022-07-10T09:10:21;1.60;;;1.40;;
13487;SDS011;6816;48.506;9.050;2022-07-10T09:13:25;1.98;;;1.30;;
13487;SDS011;6816;48.506;9.050;2022-07-10T09:16:29;3.28;;;1.13;;
13487;SDS011;6816;48.506;9.050;2022-07-10T09:19:32;1.20;;;1.08;;
13487;SDS011;6816;48.506;9.050;2022-07-10T09:22:34;3.92;;;1.40;;
13487;SDS011;6816;48.506;9.050;2022-07-10T09:25:36;2.17;;;1.15;;
13487;SDS011;6816;48.506;9.050;2022-07-10T09:28:36;1.40;;;1.23;;
13487;SDS011;6816;48.506;9.050;2022-07-10T09:31:50;2.40;;;1.30;;
13487;SDS011;6816;48.506;9.050;2022-07-10T09:34:54;1.88;;;1.13;;
13487;SDS011;6816;48.506;9.050;2022-07-10T09:38:13;1.40;;;1.10;;
13487;SDS011;6816;48.506;9.050;2022-07-10T09:44:19;1.23;;;1.02;;
13487;SDS011;6816;48.506;9.050;2022-07-10T09:47:23;1.20;;;1.13;;
13487;SDS011;6816;48.506;9.050;2022-07-10T09:50:25;2.03;;;1.27;;
13487;SDS011;6816;48.506;9.050;2022-07-10T09:53:33;2.03;;;1.55;;
13487;SDS011;6816;48.506;9.050;2022-07-10T09:56:41;1.80;;;1.23;;
13487;SDS011;6816;48.506;9.050;2022-07-10T09:59:42;1.30;;;1.20;;
13487;SDS011;6816;48.506;9.050;2022-07-10T10:02:43;2.55;;;1.30;;
13487;SDS011;6816;48.506;9.050;2022-07-10T10:05:49;1.63;;;1.20;;
13487;SDS011;6816;48.506;9.050;2022-07-10T10:08:58;1.98;;;1.35;;
13487;SDS011;6816;48.506;9.050;2022-07-10T10:12:10;2.40;;;1.40;;
13487;SDS011;6816;48.506;9.050;2022-07-10T10:15:20;1.83;;;1.50;;
13487;SDS011;6816;48.506;9.050;2022-07-10T10:18:23;2.10;;;1.60;;
13487;SDS011;6816;48.506;9.050;2022-07-10T10:21:25;2.25;;;1.38;;
13487;SDS011;6816;48.506;9.050;2022-07-10T10:24:27;3.03;;;1.42;;
13487;SDS011;6816;48.506;9.050;2022-07-10T10:27:31;1.85;;;1.10;;
13487;SDS011;6816;48.506;9.050;2022-07-10T10:30:32;2.25;;;1.30;;
13487;SDS011;6816;48.506;9.050;2022-07-10T10:36:43;1.13;;;1.05;;
13487;SDS011;6816;48.506;9.050;2022-07-10T10:39:52;1.83;;;1.20;;
13487;SDS011;6816;48.506;9.050;2022-07-10T10:42:56;1.48;;;1.10;;
13487;SDS011;6816;48.506;9.050;2022-07-10T10:45:59;1.23;;;1.10;;
13487;SDS011;6816;48.506;9.050;2022-07-10T10:49:25;1.60;;;0.90;;
13487;SDS011;6816;48.506;9.050;2022-07-10T10:52:27;1.48;;;1.38;;
13487;SDS011;6816;48.506;9.050;2022-07-10T10:55:28;1.50;;;1.17;;
13487;SDS011;6816;48.506;9.050;2022-07-10T10:58:43;1.33;;;1.23;;
13487;SDS011;6816;48.506;9.050;2022-07-10T11:01:45;1.45;;;0.98;;
13487;SDS011;6816;48.506;9.050;2022-07-10T11:04:45;2.83;;;1.25;;
13487;SDS011;6816;48.506;9.050;2022-07-10T11:07:59;1.58;;;1.25;;
13487;SDS011;6816;48.506;9.050;2022-07-10T11:11:01;1.92;;;1.30;;
13487;SDS011;6816;48.506;9.050;2022-07-10T11:14:03;1.40;;;1.20;;
13487;SDS011;6816;48.506;9.050;2022-07-10T11:17:05;1.55;;;1.25;;
13487;SDS011;6816;48.506;9.050;2022-07-10T11:20:06;1.33;;;1.23;;
13487;SDS011;6816;48.506;9.050;2022-07-10T11:23:56;2.25;;;1.27;;
13487;SDS011;6816;48.506;9.050;2022-07-10T11:26:49;2.40;;;1.40;;
13487;SDS011;6816;48.506;9.050;2022-07-10T11:30:06;1.80;;;1.58;;
13487;SDS011;6816;48.506;9.050;2022-07-10T11:33:07;1.27;;;1.15;;
13487;SDS011;6816;48.506;9.050;2022-07-10T11:36:12;1.67;;;1.25;;
13487;SDS011;6816;48.506;9.050;2022-07-10T11:39:14;2.13;;;1.02;;
13487;SDS011;6816;48.506;9.050;2022-07-10T11:42:16;1.85;;;1.17;;
13487;SDS011;6816;48.506;9.050;2022-07-10T11:45:30;1.80;;;1.30;;
13487;SDS011;6816;48.506;9.050;2022-07-10T11:48:33;3.72;;;1.08;;
13487;SDS011;6816;48.506;9.050;2022-07-10T11:51:40;2.13;;;1.20;;
13487;SDS011;6816;48.506;9.050;2022-07-10T11:54:41;1.13;;;0.95;;
13487;SDS011;6816;48.506;9.050;2022-07-10T11:57:44;0.88;;;0.88;;
13487;SDS011;6816;48.506;9.050;2022-07-10T12:00:58;1.92;;;1.10;;
13487;SDS011;6816;48.506;9.050;2022-07-10T12:04:02;1.50;;;1.10;;
13487;SDS011;6816;48.506;9.050;2022-07-10T12:07:04;1.55;;;1.02;;
13487;SDS011;6816;48.506;9.050;2022-07-10T12:10:05;1.73;;;1.00;;
13487;SDS011;6816;48.506;9.050;2022-07-10T12:13:06;1.33;;;1.05;;
13487;SDS011;6816;48.506;9.050;2022-07-10T12:16:11;1.00;;;1.00;;
13487;SDS011;6816;48.506;9.050;2022-07-10T12:19:14;2.00;;;1.02;;
13487;SDS011;6816;48.506;9.050;2022-07-10T12:22:16;1.17;;;0.95;;
13487;SDS011;6816;48.506;9.050;2022-07-10T12:25:17;2.92;;;1.15;;
13487;SDS011;6816;48.506;9.050;2022-07-10T12:28:18;1.05;;;0.90;;
13487;SDS011;6816;48.506;9.050;2022-07-10T12:31:20;2.95;;;1.20;;
13487;SDS011;6816;48.506;9.050;2022-07-10T12:34:35;1.40;;;1.23;;
13487;SDS011;6816;48.506;9.050;2022-07-10T12:37:36;2.22;;;1.20;;
13487;SDS011;6816;48.506;9.050;2022-07-10T12:40:48;1.10;;;0.90;;
13487;SDS011;6816;48.506;9.050;2022-07-10T12:43:49;1.75;;;1.17;;
13487;SDS011;6816;48.506;9.050;2022-07-10T12:46:59;1.33;;;1.05;;
13487;SDS011;6816;48.506;9.050;2022-07-10T12:50:04;3.25;;;1.00;;
13487;SDS011;6816;48.506;9.050;2022-07-10T12:53:09;0.70;;;0.70;;
13487;SDS011;6816;48.506;9.050;2022-07-10T12:56:30;1.13;;;1.00;;
13487;SDS011;6816;48.506;9.050;2022-07-10T12:59:33;0.88;;;0.85;;
13487;SDS011;6816;48.506;9.050;2022-07-10T13:02:35;1.77;;;1.02;;
13487;SDS011;6816;48.506;9.050;2022-07-10T13:05:42;2.55;;;1.17;;
13487;SDS011;6816;48.506;9.050;2022-07-10T13:08:46;1.90;;;0.90;;
13487;SDS011;6816;48.506;9.050;2022-07-10T13:11:47;1.00;;;0.80;;
13487;SDS011;6816;48.506;9.050;2022-07-10T13:14:48;0.98;;;0.88;;
13487;SDS011;6816;48.506;9.050;2022-07-10T13:17:48;2.28;;;0.60;;
13487;SDS011;6816;48.506;9.050;2022-07-10T13:20:51;0.95;;;0.80;;
13487;SDS011;6816;48.506;9.050;2022-07-10T13:23:53;1.17;;;0.68;;
13487;SDS011;6816;48.506;9.050;2022-07-10T13:26:53;0.95;;;0.93;;
13487;SDS011;6816;48.506;9.050;2022-07-10T13:29:57;1.20;;;0.77;;
13487;SDS011;6816;48.506;9.050;2022-07-10T13:32:58;1.42;;;0.80;;
13487;SDS011;6816;48.506;9.050;2022-07-10T13:35:59;2.53;;;1.33;;
13487;SDS011;6816;48.506;9.050;2022-07-10T13:39:01;1.52;;;0.80;;
13487;SDS011;6816;48.506;9.050;2022-07-10T13:42:02;1.55;;;0.95;;
13487;SDS011;6816;48.506;9.050;2022-07-10T13:45:03;1.95;;;1.08;;
13487;SDS011;6816;48.506;9.050;2022-07-10T13:48:04;1.30;;;0.73;;
13487;SDS011;6816;48.506;9.050;2022-07-10T13:51:05;1.27;;;0.75;;
13487;SDS011;6816;48.506;9.050;2022-07-10T13:54:06;1.08;;;0.60;;
13487;SDS011;6816;48.506;9.050;2022-07-10T13:57:06;1.17;;;0.60;;
13487;SDS011;6816;48.506;9.050;2022-07-10T14:00:07;1.55;;;0.68;;
13487;SDS011;6816;48.506;9.050;2022-07-10T14:03:08;0.85;;;0.60;;
13487;SDS011;6816;48.506;9.050;2022-07-10T14:06:09;2.10;;;0.70;;
13487;SDS011;6816;48.506;9.050;2022-07-10T14:09:10;1.45;;;0.85;;
13487;SDS011;6816;48.506;9.050;2022-07-10T14:12:11;0.65;;;0.60;;
13487;SDS011;6816;48.506;9.050;2022-07-10T14:15:11;0.80;;;0.50;;
13487;SDS011;6816;48.506;9.050;2022-07-10T14:18:12;1.77;;;0.70;;
13487;SDS011;6816;48.506;9.050;2022-07-10T14:21:13;0.93;;;0.52;;
13487;SDS011;6816;48.506;9.050;2022-07-10T14:24:13;2.70;;;0.50;;
13487;SDS011;6816;48.506;9.050;2022-07-10T14:27:14;0.75;;;0.52;;
13487;SDS011;6816;48.506;9.050;2022-07-10T14:30:15;0.95;;;0.70;;
13487;SDS011;6816;48.506;9.050;2022-07-10T14:33:15;1.48;;;0.70;;
13487;SDS011;6816;48.506;9.050;2022-07-10T14:36:17;1.33;;;0.50;;
13487;SDS011;6816;48.506;9.050;2022-07-10T14:39:17;0.77;;;0.50;;
13487;SDS011;6816;48.506;9.050;2022-07-10T14:42:18;0.38;;;0.38;;
13487;SDS011;6816;48.506;9.050;2022-07-10T14:45:19;1.45;;;0.60;;
13487;SDS011;6816;48.506;9.050;2022-07-10T14:48:21;1.55;;;0.65;;
13487;SDS011;6816;48.506;9.050;2022-07-10T14:51:22;1.10;;;0.50;;
13487;SDS011;6816;48.506;9.050;2022-07-10T14:54:23;0.70;;;0.70;;
13487;SDS011;6816;48.506;9.050;2022-07-10T14:57:24;1.35;;;0.60;;
13487;SDS011;6816;48.506;9.050;2022-07-10T15:00:25;1.83;;;0.60;;
13487;SDS011;6816;48.506;9.050;2022-07-10T15:03:26;1.73;;;0.98;;
13487;SDS011;6816;48.506;9.050;2022-07-10T15:06:26;1.05;;;0.70;;
13487;SDS011;6816;48.506;9.050;2022-07-10T15:09:27;0.90;;;0.60;;
13487;SDS011;6816;48.506;9.050;2022-07-10T15:12:28;1.15;;;0.55;;
13487;SDS011;6816;48.506;9.050;2022-07-10T15:15:32;1.42;;;0.57;;
13487;SDS011;6816;48.506;9.050;2022-07-10T15:18:33;1.50;;;0.70;;
13487;SDS011;6816;48.506;9.050;2022-07-10T15:21:34;1.50;;;0.93;;
13487;SDS011;6816;48.506;9.050;2022-07-10T15:24:34;1.10;;;0.50;;
13487;SDS011;6816;48.506;9.050;2022-07-10T15:27:35;0.95;;;0.50;;
13487;SDS011;6816;48.506;9.050;2022-07-10T15:30:36;1.60;;;0.68;;
13487;SDS011;6816;48.506;9.050;2022-07-10T15:33:38;1.10;;;0.50;;
13487;SDS011;6816;48.506;9.050;2022-07-10T15:36:44;2.10;;;0.60;;
13487;SDS011;6816;48.506;9.050;2022-07-10T15:39:46;2.10;;;0.90;;
13487;SDS011;6816;48.506;9.050;2022-07-10T15:42:47;0.77;;;0.63;;
13487;SDS011;6816;48.506;9.050;2022-07-10T15:45:48;3.00;;;0.90;;
13487;SDS011;6816;48.506;9.050;2022-07-10T15:48:48;1.05;;;0.70;;
13487;SDS011;6816;48.506;9.050;2022-07-10T15:51:49;1.15;;;0.60;;
13487;SDS011;6816;48.506;9.050;2022-07-10T15:54:50;1.50;;;0.77;;
13487;SDS011;6816;48.506;9.050;2022-07-10T15:57:51;1.55;;;0.73;;
13487;SDS011;6816;48.506;9.050;2022-07-10T16:00:51;0.98;;;0.60;;
13487;SDS011;6816;48.506;9.050;2022-07-10T16:03:52;1.55;;;0.75;;
13487;SDS011;6816;48.506;9.050;2022-07-10T16:06:53;2.03;;;0.90;;
13487;SDS011;6816;48.506;9.050;2022-07-10T16:09:54;1.95;;;0.70;;
13487;SDS011;6816;48.506;9.050;2022-07-10T16:12:54;1.50;;;0.70;;
13487;SDS011;6816;48.506;9.050;2022-07-10T16:15:55;0.68;;;0.60;;
13487;SDS011;6816;48.506;9.050;2022-07-10T16:18:56;0.55;;;0.50;;
13487;SDS011;6816;48.506;9.050;2022-07-10T16:21:57;0.77;;;0.60;;
13487;SDS011;6816;48.506;9.050;2022-07-10T16:24:58;0.98;;;0.82;;
13487;SDS011;6816;48.506;9.050;2022-07-10T16:28:17;0.82;;;0.50;;
13487;SDS011;6816;48.506;9.050;2022-07-10T16:31:18;1.42;;;0.80;;
13487;SDS011;6816;48.506;9.050;2022-07-10T16:34:19;1.45;;;0.85;;
13487;SDS011;6816;48.506;9.050;2022-07-10T16:37:20;1.13;;;0.80;;
13487;SDS011;6816;48.506;9.050;2022-07-10T16:40:21;1.10;;;1.00;;
13487;SDS011;6816;48.506;9.050;2022-07-10T16:43:21;1.20;;;0.70;;
13487;SDS011;6816;48.506;9.050;2022-07-10T16:46:24;1.65;;;0.80;;
13487;SDS011;6816;48.506;9.050;2022-07-10T16:49:25;2.00;;;1.40;;
13487;SDS011;6816;48.506;9.050;2022-07-10T16:52:26;1.90;;;0.80;;
13487;SDS011;6816;48.506;9.050;2022-07-10T16:55:27;1.15;;;0.77;;
13487;SDS011;6816;48.506;9.050;2022-07-10T16:58:28;2.35;;;0.80;;
13487;SDS011;6816;48.506;9.050;2022-07-10T17:01:29;0.63;;;0.50;;
13487;SDS011;6816;48.506;9.050;2022-07-10T17:04:29;1.55;;;0.90;;
13487;SDS011;6816;48.506;9.050;2022-07-10T17:07:40;0.63;;;0.60;;
13487;SDS011;6816;48.506;9.050;2022-07-10T17:10:41;1.05;;;0.70;;
13487;SDS011;6816;48.506;9.050;2022-07-10T17:13:42;0.75;;;0.43;;
13487;SDS011;6816;48.506;9.050;2022-07-10T17:16:43;2.08;;;0.60;;
13487;SDS011;6816;48.506;9.050;2022-07-10T17:19:44;0.88;;;0.68;;
13487;SDS011;6816;48.506;9.050;2022-07-10T17:22:44;1.35;;;0.60;;
13487;SDS011;6816;48.506;9.050;2022-07-10T17:25:45;1.40;;;0.55;;
13487;SDS011;6816;48.506;9.050;2022-07-10T17:28:46;1.67;;;0.70;;
13487;SDS011;6816;48.506;9.050;2022-07-10T17:31:47;2.72;;;0.88;;
13487;SDS011;6816;48.506;9.050;2022-07-10T17:34:47;0.80;;;0.73;;
13487;SDS011;6816;48.506;9.050;2022-07-10T17:37:48;0.93;;;0.70;;
13487;SDS011;6816;48.506;9.050;2022-07-10T17:40:49;1.42;;;0.82;;
13487;SDS011;6816;48.506;9.050;2022-07-10T17:43:49;1.30;;;0.80;;
13487;SDS011;6816;48.506;9.050;2022-07-10T17:46:53;0.68;;;0.60;;
13487;SDS011;6816;48.506;9.050;2022-07-10T17:49:54;0.82;;;0.70;;
13487;SDS011;6816;48.506;9.050;2022-07-10T17:52:55;1.42;;;0.80;;
13487;SDS011;6816;48.506;9.050;2022-07-10T17:55:56;0.85;;;0.60;;
13487;SDS011;6816;48.506;9.050;2022-07-10T17:58:58;1.45;;;0.80;;
13487;SDS011;6816;48.506;9.050;2022-07-10T18:01:58;0.95;;;0.80;;
13487;SDS011;6816;48.506;9.050;2022-07-10T18:05:02;2.22;;;0.60;;
13487;SDS011;6816;48.506;9.050;2022-07-10T18:08:03;1.63;;;0.90;;
13487;SDS011;6816;48.506;9.050;2022-07-10T18:11:06;1.50;;;0.65;;
13487;SDS011;6816;48.506;9.050;2022-07-10T18:14:07;0.70;;;0.70;;
13487;SDS011;6816;48.506;9.050;2022-07-10T18:17:08;1.75;;;0.60;;
13487;SDS011;6816;48.506;9.050;2022-07-10T18:20:09;0.57;;;0.52;;
13487;SDS011;6816;48.506;9.050;2022-07-10T18:23:10;2.30;;;0.77;;
13487;SDS011;6816;48.506;9.050;2022-07-10T18:26:11;3.65;;;1.08;;
13487;SDS011;6816;48.506;9.050;2022-07-10T18:29:12;1.52;;;0.88;;
13487;SDS011;6816;48.506;9.050;2022-07-10T18:32:14;1.38;;;0.80;;
13487;SDS011;6816;48.506;9.050;2022-07-10T18:35:15;0.68;;;0.60;;
13487;SDS011;6816;48.506;9.050;2022-07-10T18:38:16;1.42;;;0.80;;
13487;SDS011;6816;48.506;9.050;2022-07-10T18:41:16;2.13;;;0.90;;